Time;durP1;ratioP1;P1;durP2;ratioP2;P2;SDS_P1;SDS_P2;PMS_P1;PMS_P2;Temp;Humidity;BMP_temperature;BMP_pressure;BME280_temperature;BME280_humidity;BME280_pressure;Samples;Min_cycle;Max_cycle;Signal;HPM_P1;HPM_P2
2023/05/10 00:00:58;;;;;;;2.53;1.50;;;12.80;73.00;;;11.37;59.36;100355.50;10421281;27;96755;-82
2023/05/10 00:06:01;;;;;;;3.40;1.30;;;12.70;73.30;;;11.35;59.26;100357.50;10416343;27;96547;-82
2023/05/10 00:11:04;;;;;;;3.00;1.80;;;12.70;73.60;;;11.31;59.83;100350.03;10399123;27;96754;-82
2023/05/10 00:16:07;;;;;;;4.60;2.40;;;12.60;73.70;;;11.23;60.14;100343.72;10383474;27;96538;-82
2023/05/10 00:21:10;;;;;;;4.87;2.10;;;12.50;73.90;;;11.15;60.31;100351.69;10382658;27;96632;-82
2023/05/10 00:26:13;;;;;;;4.77;2.70;;;12.40;74.30;;;10.99;60.99;100341.09;10382101;27;96551;-82
2023/05/10 00:31:16;;;;;;;5.03;2.90;;;12.30;74.80;;;10.83;61.95;100341.91;10418170;27;96616;-82
2023/05/10 00:36:20;;;;;;;4.60;2.67;;;12.10;75.30;;;10.63;62.26;100341.41;10398756;27;96424;-82
2023/05/10 00:41:23;;;;;;;3.77;2.20;;;12.00;76.00;;;10.47;63.24;100335.22;10402323;27;97824;-83
2023/05/10 00:46:27;;;;;;;2.53;1.90;;;11.80;76.60;;;10.32;63.75;100341.19;10408525;27;96546;-82
2023/05/10 00:51:31;;;;;;;4.23;2.03;;;11.60;77.10;;;10.21;64.19;100349.44;10411823;27;96670;-83
2023/05/10 00:56:35;;;;;;;3.30;1.77;;;11.50;77.40;;;10.07;64.75;100329.63;10416379;27;96683;-83
2023/05/10 01:01:38;;;;;;;7.03;3.40;;;11.40;77.90;;;9.96;65.07;100337.91;10428058;27;96778;-83
2023/05/10 01:06:42;;;;;;;4.83;2.77;;;11.30;78.60;;;9.81;65.81;100335.00;10409680;27;96630;-83
2023/05/10 01:11:47;;;;;;;3.90;2.70;;;11.20;79.10;;;9.70;66.46;100323.84;10428457;27;96760;-83
2023/05/10 01:16:51;;;;;;;4.80;2.63;;;11.10;79.60;;;9.65;67.04;100330.47;10403758;27;96573;-83
2023/05/10 01:22:31;;;;;;;4.23;2.10;;;11.00;80.00;;;9.57;67.61;100337.56;10395453;27;99375;-83
2023/05/10 01:27:56;;;;;;;5.10;3.13;;;10.90;80.70;;;9.48;68.50;100335.84;10437541;27;96562;-83
2023/05/10 01:33:11;;;;;;;3.70;2.20;;;10.80;81.20;;;9.38;68.70;100335.97;10456175;27;96724;-83
2023/05/10 01:38:47;;;;;;;3.23;2.00;;;10.70;81.60;;;9.28;69.35;100333.41;10420537;27;96572;-83
2023/05/10 01:44:20;;;;;;;4.37;2.20;;;10.60;82.10;;;9.24;70.00;100340.03;10413374;27;96597;-83
2023/05/10 01:49:30;;;;;;;4.90;2.37;;;10.50;82.50;;;9.17;70.10;100331.00;10456842;27;98688;-83
2023/05/10 01:54:35;;;;;;;2.97;2.00;;;10.50;83.20;;;9.15;70.39;100330.34;10430636;27;97599;-83
2023/05/10 01:59:40;;;;;;;4.87;2.90;;;10.50;83.20;;;9.18;70.35;100330.03;10410530;27;98482;-83
2023/05/10 02:04:46;;;;;;;5.10;2.23;;;10.50;83.60;;;9.26;70.56;100319.47;10419094;27;97745;-83
2023/05/10 02:09:50;;;;;;;3.47;2.17;;;10.60;83.90;;;9.32;71.39;100318.84;10418055;27;97570;-83
2023/05/10 02:14:54;;;;;;;3.60;2.27;;;10.70;84.70;;;9.36;71.71;100312.25;10417939;27;97789;-83
2023/05/10 02:19:59;;;;;;;3.27;2.20;;;10.70;85.00;;;9.44;72.37;100310.63;10399942;28;96637;-83
2023/05/10 02:25:04;;;;;;;3.47;2.37;;;10.80;85.60;;;9.49;72.24;100305.69;10403470;27;96548;-83
2023/05/10 02:30:09;;;;;;;4.37;2.37;;;10.80;86.40;;;9.55;72.78;100308.53;10406809;27;98364;-83
2023/05/10 02:35:12;;;;;;;3.60;2.13;;;10.90;86.90;;;9.64;73.25;100301.44;10427836;27;96485;-83
2023/05/10 02:40:17;;;;;;;3.63;2.57;;;11.00;87.90;;;9.73;73.63;100305.78;10428801;27;96460;-81
2023/05/10 02:45:27;;;;;;;3.03;2.23;;;11.00;88.00;;;9.79;73.90;100310.47;10388188;27;97840;-81
2023/05/10 02:50:33;;;;;;;3.30;2.17;;;11.20;88.60;;;9.81;73.67;100307.63;10420485;27;96609;-82
2023/05/10 02:55:41;;;;;;;3.30;2.20;;;11.20;88.80;;;9.85;74.03;100309.00;10404842;27;96518;-82
2023/05/10 03:00:46;;;;;;;3.67;2.30;;;11.20;88.80;;;9.90;73.89;100312.84;10400840;27;99107;-82
2023/05/10 03:05:49;;;;;;;2.87;2.10;;;11.30;89.10;;;9.90;73.29;100307.53;10425874;27;96484;-82
2023/05/10 03:11:33;;;;;;;4.60;2.60;;;11.40;89.40;;;9.92;73.10;100317.97;10385100;27;97359;-83
2023/05/10 03:16:57;;;;;;;5.73;3.60;;;11.30;89.30;;;9.89;72.86;100313.78;10400512;27;98464;-82
2023/05/10 03:22:08;;;;;;;6.47;3.33;;;11.30;89.60;;;9.87;72.87;100305.16;10431765;27;96515;-82
2023/05/10 03:27:14;;;;;;;7.80;4.78;;;11.30;90.00;;;9.91;73.38;100303.88;10413174;27;96689;-82
2023/05/10 03:32:17;;;;;;;13.33;7.47;;;11.30;90.20;;;9.90;73.15;100312.84;10400185;27;96557;-82
2023/05/10 03:37:20;;;;;;;22.47;9.73;;;11.30;90.30;;;9.89;73.49;100308.50;10414693;27;97847;-82
2023/05/10 03:42:23;;;;;;;9.03;5.33;;;11.30;90.40;;;9.84;74.56;100310.81;10400886;27;96532;-82
2023/05/10 03:47:26;;;;;;;5.77;3.40;;;11.20;91.10;;;9.82;74.49;100315.44;10416661;27;97760;-82
2023/05/10 03:52:29;;;;;;;5.13;3.40;;;11.20;91.20;;;9.81;75.04;100307.63;10423305;27;96881;-82
2023/05/10 03:57:33;;;;;;;4.90;3.20;;;11.20;91.40;;;9.81;74.94;100319.09;10392527;27;96464;-82
2023/05/10 04:02:36;;;;;;;8.90;3.27;;;11.20;91.60;;;9.77;74.91;100316.91;10408002;27;98119;-82
2023/05/10 04:07:40;;;;;;;4.43;2.70;;;11.20;91.80;;;9.70;75.34;100311.41;10413238;27;96978;-83
2023/05/10 04:12:43;;;;;;;5.73;3.07;;;11.10;92.30;;;9.66;76.11;100304.78;10429994;27;96658;-82
2023/05/10 04:17:47;;;;;;;4.70;2.60;;;11.00;92.40;;;9.68;76.34;100310.75;10419223;27;97529;-82
2023/05/10 04:22:50;;;;;;;4.47;2.80;;;11.00;92.70;;;9.68;76.35;100308.09;10409950;27;97972;-84
2023/05/10 04:27:52;;;;;;;4.80;2.50;;;11.10;93.00;;;9.69;76.24;100315.06;10434048;27;96816;-82
2023/05/10 04:32:56;;;;;;;3.93;2.90;;;11.00;93.40;;;9.65;76.87;100321.66;10435307;27;96839;-83
2023/05/10 04:37:59;;;;;;;6.87;4.03;;;11.00;93.80;;;9.64;76.98;100325.31;10450725;27;96570;-82
2023/05/10 04:43:02;;;;;;;4.07;2.87;;;10.90;94.30;;;9.63;77.37;100316.53;10411827;28;97547;-82
2023/05/10 04:48:05;;;;;;;3.80;2.83;;;10.90;94.70;;;9.67;77.36;100319.69;10423665;27;97500;-83
2023/05/10 04:53:08;;;;;;;4.37;2.83;;;11.00;95.10;;;9.72;77.66;100316.56;10446982;27;96616;-83
2023/05/10 04:58:11;;;;;;;8.00;3.33;;;11.00;95.40;;;9.81;78.09;100319.09;10413320;27;98617;-83
2023/05/10 05:03:14;;;;;;;5.87;3.23;;;11.10;96.00;;;9.96;78.02;100321.97;10422726;27;96941;-84
2023/05/10 05:08:18;;;;;;;4.90;3.50;;;11.20;96.30;;;10.10;78.24;100313.38;10383135;28;96494;-83
2023/05/10 05:13:21;;;;;;;7.53;3.77;;;11.30;96.70;;;10.28;78.08;100320.44;10403123;28;96741;-84
2023/05/10 05:18:24;;;;;;;4.80;3.27;;;11.50;96.90;;;10.49;78.18;100319.94;10414801;28;96697;-84
2023/05/10 05:23:27;;;;;;;6.83;3.83;;;11.70;97.10;;;10.72;77.32;100326.28;10385209;28;96629;-83
2023/05/10 05:28:33;;;;;;;5.17;3.43;;;11.90;97.00;;;11.03;77.76;100330.94;10400962;28;97965;-82
2023/05/10 05:33:37;;;;;;;6.97;3.77;;;12.20;97.10;;;11.72;74.79;100326.78;10417197;27;96660;-83
2023/05/10 05:38:40;;;;;;;5.17;3.43;;;12.50;97.00;;;11.77;73.54;100327.13;10457591;27;96580;-82
2023/05/10 05:43:43;;;;;;;5.17;3.20;;;12.70;96.80;;;11.80;73.67;100332.06;10403674;27;97152;-82
2023/05/10 05:48:46;;;;;;;5.23;4.13;;;12.80;96.80;;;11.87;73.65;100329.59;10367210;28;96513;-83
2023/05/10 05:53:49;;;;;;;4.87;3.27;;;13.00;96.80;;;11.89;73.00;100339.06;10386991;27;96656;-82
2023/05/10 05:58:53;;;;;;;6.20;3.67;;;13.10;96.20;;;11.88;73.08;100342.75;10402598;27;96664;-82
2023/05/10 06:03:56;;;;;;;7.70;3.87;;;13.20;96.00;;;12.05;73.01;100349.66;10423239;27;96771;-82
2023/05/10 06:08:59;;;;;;;8.13;3.37;;;13.30;95.90;;;12.26;73.14;100342.88;10409890;27;96534;-83
2023/05/10 06:14:07;;;;;;;5.87;3.43;;;13.50;96.10;;;12.47;71.55;100340.41;10414739;27;96812;-83
2023/05/10 06:19:10;;;;;;;4.43;2.87;;;13.80;95.70;;;12.80;70.85;100343.69;10400323;27;96717;-82
2023/05/10 06:24:13;;;;;;;5.17;3.03;;;14.00;95.30;;;13.08;68.96;100329.81;10425525;27;97559;-82
2023/05/10 06:29:16;;;;;;;4.47;3.60;;;14.30;94.40;;;13.28;65.55;100336.28;10419765;27;96677;-83
2023/05/10 06:34:19;;;;;;;5.25;3.65;;;14.60;93.10;;;13.34;64.72;100340.91;10439672;27;96518;-82
2023/05/10 06:39:22;;;;;;;4.93;3.67;;;14.70;92.10;;;13.41;64.90;100335.66;10417035;27;97856;-82
2023/05/10 06:44:25;;;;;;;7.77;3.53;;;14.70;91.90;;;13.58;64.63;100341.66;10469772;27;96647;-83
2023/05/10 06:49:28;;;;;;;5.30;2.77;;;14.90;91.60;;;13.83;63.47;100332.34;10392753;27;98688;-83
2023/05/10 06:54:31;;;;;;;4.05;3.00;;;15.10;91.20;;;13.93;62.53;100330.22;10428432;27;96768;-83
2023/05/10 06:59:36;;;;;;;5.10;3.30;;;15.20;90.40;;;14.05;61.72;100324.41;10425692;27;96989;-82
2023/05/10 07:04:39;;;;;;;4.95;3.28;;;15.40;90.30;;;14.05;62.36;100327.91;10417461;27;98460;-82
2023/05/10 07:09:42;;;;;;;5.03;2.97;;;15.40;90.10;;;14.02;61.51;100325.59;10400499;27;97744;-83
2023/05/10 07:14:46;;;;;;;4.37;3.10;;;15.40;89.50;;;14.11;61.85;100327.16;10439607;27;98529;-83
2023/05/10 07:19:49;;;;;;;4.60;3.15;;;15.40;89.80;;;14.28;61.77;100332.28;10442766;27;96774;-83
2023/05/10 07:24:52;;;;;;;4.50;3.40;;;15.50;89.70;;;14.53;61.20;100328.25;10438029;27;97872;-83
2023/05/10 07:29:56;;;;;;;4.15;2.90;;;15.70;89.10;;;14.70;59.73;100327.00;10438749;27;96526;-83
2023/05/10 07:34:59;;;;;;;3.78;2.67;;;16.00;87.60;;;14.89;58.83;100319.34;10425140;27;96658;-83
2023/05/10 07:40:02;;;;;;;3.78;2.90;;;16.20;86.10;;;14.95;58.87;100329.25;10403427;27;96493;-84
2023/05/10 07:45:06;;;;;;;3.13;2.60;;;16.20;86.10;;;14.88;58.62;100318.50;10435663;27;96658;-83
2023/05/10 07:50:09;;;;;;;4.38;2.50;;;16.20;85.50;;;14.95;59.42;100324.75;10426952;27;96926;-83
2023/05/10 07:55:14;;;;;;;5.93;3.47;;;16.30;86.00;;;15.18;59.02;100319.16;10412867;27;96912;-83
2023/05/10 08:00:19;;;;;;;4.13;3.03;;;16.50;85.70;;;15.29;57.32;100319.63;10393126;27;98309;-82
2023/05/10 08:05:23;;;;;;;6.57;2.97;;;16.60;84.30;;;15.32;58.12;100322.75;10429068;27;98145;-81
2023/05/10 08:10:26;;;;;;;6.88;2.97;;;16.70;84.30;;;15.38;57.61;100318.47;10433007;27;97416;-82
2023/05/10 08:15:29;;;;;;;3.97;3.30;;;16.80;83.90;;;15.30;57.63;100316.78;10442553;27;96647;-82
2023/05/10 08:20:32;;;;;;;4.00;2.80;;;16.70;83.30;;;15.43;57.77;100316.84;10424491;27;98291;-82
2023/05/10 08:25:35;;;;;;;4.38;2.88;;;16.80;83.70;;;15.47;57.62;100312.75;10422397;27;96672;-82
2023/05/10 08:30:39;;;;;;;4.45;2.80;;;16.90;83.20;;;15.40;56.69;100316.41;10422439;27;97647;-82
2023/05/10 08:35:42;;;;;;;2.92;2.05;;;16.90;82.50;;;15.19;57.78;100312.78;10405904;27;96695;-82
2023/05/10 08:40:46;;;;;;;4.75;1.98;;;16.70;82.60;;;15.09;58.53;100312.28;10419114;27;96571;-82
2023/05/10 08:45:51;;;;;;;5.30;2.70;;;16.60;83.20;;;15.13;58.52;100310.88;10418693;27;96816;-83
2023/05/10 08:50:56;;;;;;;5.80;2.70;;;16.60;83.40;;;15.19;58.39;100306.59;10404645;27;97010;-83
2023/05/10 08:56:00;;;;;;;5.13;3.35;;;16.60;83.30;;;15.32;57.54;100305.84;10393781;27;97479;-82
2023/05/10 09:01:05;;;;;;;3.30;2.05;;;16.70;82.90;;;15.57;57.07;100300.84;10391290;27;96678;-82
2023/05/10 09:06:08;;;;;;;2.80;2.20;;;16.80;82.50;;;15.78;55.84;100304.31;10403288;28;97216;-82
2023/05/10 09:11:13;;;;;;;5.80;3.38;;;17.10;81.40;;;15.78;55.21;100301.63;10413540;28;96726;-82
2023/05/10 09:16:16;;;;;;;2.40;1.77;;;17.10;80.70;;;16.10;55.03;100301.94;10398905;27;96772;-82
2023/05/10 09:21:24;;;;;;;2.60;2.10;;;17.30;80.40;;;16.37;53.62;100310.06;10417391;27;97008;-82
2023/05/10 09:26:27;;;;;;;3.65;2.10;;;17.60;79.30;;;16.51;52.11;100303.69;10389625;28;96778;-83
2023/05/10 09:31:54;;;;;;;6.55;2.28;;;17.80;77.20;;;16.73;52.86;100299.84;10445962;27;96568;-82
2023/05/10 09:37:04;;;;;;;3.15;2.30;;;17.90;77.80;;;16.87;51.64;100302.53;10443637;27;97447;-83
2023/05/10 09:42:09;;;;;;;3.10;1.80;;;18.20;76.70;;;16.79;50.75;100299.03;10426541;27;96664;-82
2023/05/10 09:47:18;;;;;;;4.60;2.03;;;18.20;75.00;;;16.63;51.08;100298.56;10395813;27;96618;-83
2023/05/10 09:52:21;;;;;;;6.45;2.40;;;18.10;74.20;;;16.66;51.39;100287.41;10413485;27;98382;-82
2023/05/10 09:57:26;;;;;;;3.30;2.17;;;18.10;74.90;;;16.71;51.51;100288.47;10454870;27;96898;-83
2023/05/10 10:02:29;;;;;;;3.83;2.53;;;18.10;74.30;;;17.08;49.89;100278.97;10424593;27;98417;-83
2023/05/10 10:07:32;;;;;;;3.45;1.73;;;18.40;74.00;;;17.41;49.28;100271.91;10384085;27;96628;-82
2023/05/10 10:12:37;;;;;;;2.83;1.83;;;18.70;73.00;;;17.43;49.18;100265.25;10407368;27;96759;-83
2023/05/10 10:17:43;;;;;;;2.55;1.50;;;18.90;71.90;;;17.63;48.44;100263.34;10413083;27;96568;-83
2023/05/10 10:22:47;;;;;;;2.05;1.55;;;19.00;71.50;;;17.57;47.11;100261.53;10423869;27;97391;-83
2023/05/10 10:27:53;;;;;;;2.33;1.70;;;19.00;69.90;;;18.01;47.60;100259.09;10393524;27;96629;-83
2023/05/10 10:33:45;;;;;;;2.03;1.33;;;19.30;70.40;;;18.04;46.42;100258.63;10424112;27;96638;-82
2023/05/10 10:39:01;;;;;;;2.38;1.48;;;19.40;68.40;;;17.82;46.79;100253.59;10440074;27;96626;-82
2023/05/10 10:44:25;;;;;;;2.75;1.85;;;19.30;68.00;;;17.60;46.82;100242.25;10441333;27;97603;-82
2023/05/10 10:49:43;;;;;;;2.00;1.40;;;19.10;67.80;;;17.50;46.22;100249.13;10415422;27;98265;-81
2023/05/10 10:55:10;;;;;;;2.92;1.35;;;18.90;67.70;;;17.47;46.11;100223.50;10432288;27;96731;-82
2023/05/10 11:00:45;;;;;;;2.25;1.40;;;18.90;66.50;;;18.09;46.36;100229.25;10394544;27;97891;-83
2023/05/10 11:05:50;;;;;;;2.97;1.42;;;19.30;67.60;;;18.41;44.31;100212.06;10418164;27;96765;-83
2023/05/10 11:11:00;;;;;;;3.08;1.58;;;19.70;65.80;;;18.42;43.00;100216.41;10415848;27;98155;-83
2023/05/10 11:16:26;;;;;;;1.88;1.40;;;19.80;63.90;;;18.24;42.92;100205.56;10414035;27;98354;-83
2023/05/10 11:21:34;;;;;;;7.30;1.50;;;19.70;62.70;;;17.97;42.61;100201.38;10408400;27;98496;-83
2023/05/10 11:26:37;;;;;;;3.53;1.50;;;19.50;62.60;;;17.62;45.14;100209.81;10409462;27;96526;-83
2023/05/10 11:31:46;;;;;;;3.42;1.27;;;19.10;64.40;;;17.56;45.20;100200.72;10409653;27;96587;-83
2023/05/10 11:36:56;;;;;;;1.73;1.42;;;19.10;65.40;;;17.74;44.83;100201.94;10415869;28;96494;-83
2023/05/10 11:42:00;;;;;;;1.98;1.30;;;19.20;65.00;;;17.80;44.88;100195.69;10431913;27;96578;-84
2023/05/10 11:47:03;;;;;;;2.13;1.27;;;19.20;64.80;;;17.82;45.07;100194.47;10400603;27;96573;-83
2023/05/10 11:52:08;;;;;;;1.42;1.20;;;19.20;64.60;;;18.10;44.95;100193.22;10396553;27;98276;-83
2023/05/10 11:57:11;;;;;;;2.35;1.20;;;19.40;65.20;;;18.04;43.95;100188.72;10409423;27;96641;-82
2023/05/10 12:02:14;;;;;;;2.70;1.40;;;19.50;64.00;;;18.11;44.43;100193.03;10418539;27;96598;-83
2023/05/10 12:07:18;;;;;;;2.58;1.40;;;19.50;64.30;;;18.18;43.60;100183.06;10400897;27;97142;-82
2023/05/10 12:12:21;;;;;;;1.50;1.10;;;19.60;63.60;;;18.25;43.75;100185.69;10437419;27;96638;-82
2023/05/10 12:17:28;;;;;;;5.47;1.80;;;19.60;63.60;;;18.09;43.39;100186.22;10406921;27;98515;-83
2023/05/10 12:22:35;;;;;;;2.33;1.20;;;19.50;62.80;;;18.08;43.36;100171.13;10387573;27;96525;-83
2023/05/10 12:27:38;;;;;;;2.75;1.20;;;19.50;62.90;;;18.09;43.86;100178.16;10383188;28;96593;-83
2023/05/10 12:32:41;;;;;;;3.72;1.33;;;19.60;62.90;;;18.01;43.66;100170.34;10395817;27;96606;-83
2023/05/10 12:37:45;;;;;;;3.13;1.17;;;19.50;63.00;;;17.86;43.63;100168.78;10385920;27;96526;-82
2023/05/10 12:42:48;;;;;;;7.63;1.45;;;19.30;62.80;;;17.80;44.28;100158.88;10432264;27;96549;-83
2023/05/10 12:47:51;;;;;;;2.25;1.10;;;19.20;63.30;;;17.87;43.89;100164.22;10426864;27;96649;-82
2023/05/10 12:52:54;;;;;;;2.72;1.25;;;19.20;63.00;;;17.91;44.03;100158.19;10414023;27;97395;-83
2023/05/10 12:57:57;;;;;;;2.30;1.65;;;19.30;63.00;;;17.96;44.12;100152.19;10478465;27;96526;-83
2023/05/10 13:03:00;;;;;;;2.50;1.10;;;19.40;63.20;;;18.15;44.32;100143.13;10455360;27;96803;-83
2023/05/10 13:08:04;;;;;;;4.68;1.10;;;19.50;63.50;;;18.42;42.62;100141.06;10393223;28;97559;-83
2023/05/10 13:13:08;;;;;;;6.22;1.52;;;19.80;62.20;;;18.37;42.59;100138.22;10403204;27;96699;-83
2023/05/10 13:18:11;;;;;;;3.88;1.15;;;19.90;61.50;;;18.31;42.74;100133.72;10423892;27;96723;-82
2023/05/10 13:23:14;;;;;;;5.35;1.30;;;19.80;61.30;;;18.30;42.78;100131.25;10408791;27;97132;-83
2023/05/10 13:28:16;;;;;;;1.77;1.02;;;19.70;61.20;;;18.34;43.15;100111.72;10420690;28;96509;-82
2023/05/10 13:33:19;;;;;;;3.88;1.10;;;19.80;61.80;;;18.48;42.32;100107.06;10405411;27;97320;-83
2023/05/10 13:38:22;;;;;;;1.75;1.00;;;19.90;61.10;;;18.65;42.48;100101.91;10440160;27;96524;-83
2023/05/10 13:43:25;;;;;;;2.65;1.00;;;20.10;60.90;;;18.72;40.53;100100.03;10413478;27;99081;-82
2023/05/10 13:48:28;;;;;;;2.35;0.90;;;20.20;59.00;;;18.60;39.64;100099.91;10432399;27;97085;-82
2023/05/10 13:53:32;;;;;;;4.18;0.95;;;20.10;58.10;;;18.62;40.16;100097.00;10417751;27;96587;-82
2023/05/10 13:58:36;;;;;;;1.35;0.88;;;20.00;59.20;;;18.87;39.67;100081.63;10425979;27;96398;-82
2023/05/10 14:03:39;;;;;;;1.25;0.95;;;20.30;57.90;;;18.93;39.20;100083.41;10431633;27;97635;-82
2023/05/10 14:08:43;;;;;;;1.70;1.08;;;20.30;57.70;;;18.98;39.91;100075.50;10440461;27;96598;-82
2023/05/10 14:13:46;;;;;;;1.20;0.90;;;20.40;58.10;;;18.93;39.11;100071.81;10435527;27;97573;-82
2023/05/10 14:18:49;;;;;;;4.15;1.17;;;20.40;57.50;;;18.97;40.62;100068.47;10425482;27;96630;-82
2023/05/10 14:23:52;;;;;;;1.90;1.23;;;20.40;58.40;;;19.21;39.29;100069.41;10426994;27;96921;-82
2023/05/10 14:28:55;;;;;;;2.65;1.00;;;20.80;57.40;;;19.07;39.27;100059.00;10432998;27;98594;-83
2023/05/10 14:33:59;;;;;;;3.63;1.10;;;20.70;56.80;;;18.80;39.59;100061.22;10428174;27;96588;-83
2023/05/10 14:39:02;;;;;;;2.90;1.75;;;20.50;57.10;;;18.59;40.36;100065.13;10427163;27;98349;-83
2023/05/10 14:44:05;;;;;;;3.45;1.30;;;20.10;57.80;;;18.45;40.97;100056.38;10387440;27;97229;-83
2023/05/10 14:49:08;;;;;;;2.63;1.30;;;19.90;58.20;;;18.32;41.29;100056.53;10444901;27;96654;-83
2023/05/10 14:54:11;;;;;;;2.28;1.30;;;19.80;58.60;;;18.42;41.08;100054.97;10391543;27;96444;-83
2023/05/10 14:59:14;;;;;;;1.92;0.90;;;19.90;58.80;;;18.48;41.16;100063.22;10437048;27;96874;-83
2023/05/10 15:04:18;;;;;;;1.73;1.23;;;19.90;58.60;;;18.42;40.58;100065.75;10440743;27;96714;-83
2023/05/10 15:09:21;;;;;;;4.22;1.10;;;19.80;58.20;;;18.29;39.90;100060.50;10405266;27;96622;-83
2023/05/10 15:14:24;;;;;;;2.30;1.00;;;19.70;57.40;;;18.17;39.45;100056.84;10456543;27;96532;-83
2023/05/10 15:19:29;;;;;;;2.17;1.00;;;19.50;57.30;;;18.11;39.83;100063.13;10404174;27;96643;-83
2023/05/10 15:24:31;;;;;;;1.52;1.00;;;19.50;57.40;;;18.19;39.31;100055.59;10413084;27;96985;-83
2023/05/10 15:29:35;;;;;;;1.55;0.90;;;19.60;57.20;;;18.51;38.51;100052.81;10430440;27;96777;-84
2023/05/10 15:34:38;;;;;;;1.05;0.65;;;20.10;55.80;;;19.02;38.20;100056.19;10428547;27;96544;-84
2023/05/10 15:39:41;;;;;;;1.88;0.73;;;20.70;55.30;;;19.20;37.79;100056.16;10437910;27;97000;-84
2023/05/10 15:44:44;;;;;;;1.52;0.80;;;21.00;54.90;;;19.37;37.69;100056.34;10414101;27;96594;-84
2023/05/10 15:49:47;;;;;;;4.32;0.82;;;21.20;54.90;;;19.35;37.51;100048.47;10409271;27;96512;-84
2023/05/10 15:54:51;;;;;;;2.47;0.90;;;21.20;54.30;;;18.93;38.45;100061.88;10399790;27;96751;-84
2023/05/10 15:59:55;;;;;;;2.40;0.90;;;20.70;54.70;;;18.53;39.54;100049.88;10441342;27;97447;-83
2023/05/10 16:04:58;;;;;;;1.50;1.00;;;20.20;55.80;;;18.23;40.38;100057.84;10395980;27;96708;-83
2023/05/10 16:10:03;;;;;;;3.35;1.05;;;19.80;56.70;;;17.95;40.90;100051.06;10433492;27;96551;-83
2023/05/10 16:15:07;;;;;;;3.15;1.65;;;19.50;57.50;;;17.80;41.63;100056.75;10425634;27;96820;-83
2023/05/10 16:20:10;;;;;;;2.78;1.73;;;19.20;58.30;;;17.65;42.25;100048.97;10389616;27;96666;-83
2023/05/10 16:25:13;;;;;;;2.55;1.80;;;19.10;58.90;;;17.61;42.96;100055.00;10425180;27;97590;-83
2023/05/10 16:30:17;;;;;;;1.75;1.35;;;18.90;59.50;;;17.58;43.43;100061.66;10408167;27;96589;-83
2023/05/10 16:35:22;;;;;;;3.78;1.35;;;18.90;60.10;;;17.50;43.20;100061.06;10405000;27;96603;-82
2023/05/10 16:40:25;;;;;;;2.00;1.02;;;18.90;60.40;;;17.49;43.70;100052.19;10449673;27;97883;-83
2023/05/10 16:45:31;;;;;;;1.90;1.25;;;18.80;60.50;;;17.43;43.47;100061.09;10388607;27;96768;-83
2023/05/10 16:50:34;;;;;;;2.70;1.83;;;18.80;60.60;;;17.48;44.42;100072.03;10430128;27;96809;-82
2023/05/10 16:55:37;;;;;;;2.17;1.60;;;18.80;61.30;;;17.51;43.68;100068.09;10422818;27;99338;-83
2023/05/10 17:00:40;;;;;;;2.05;1.40;;;18.80;60.80;;;17.52;43.47;100077.81;10433241;27;96646;-83
2023/05/10 17:05:43;;;;;;;3.92;1.55;;;18.80;60.60;;;17.54;43.81;100081.09;10416515;27;96578;-83
2023/05/10 17:10:46;;;;;;;2.75;1.67;;;18.80;60.90;;;17.54;43.59;100081.09;10421280;28;96442;-83
2023/05/10 17:15:49;;;;;;;5.53;2.28;;;18.80;61.00;;;17.48;44.26;100085.47;10444490;27;97559;-83
2023/05/10 17:20:52;;;;;;;5.20;3.63;;;18.80;61.40;;;17.33;44.14;100088.47;10395245;27;96772;-83
2023/05/10 17:25:55;;;;;;;6.25;4.93;;;18.60;61.60;;;17.23;45.16;100095.31;10427510;27;97423;-83
2023/05/10 17:30:58;;;;;;;6.65;4.95;;;18.60;62.20;;;17.11;44.84;100100.53;10454555;27;96680;-82
2023/05/10 17:36:02;;;;;;;3.05;1.90;;;18.40;62.10;;;16.98;45.10;100100.59;10405442;27;96844;-82
2023/05/10 17:41:07;;;;;;;2.38;1.70;;;18.30;62.20;;;16.83;45.16;100095.44;10428262;27;96446;-82
2023/05/10 17:46:11;;;;;;;2.58;1.40;;;18.20;62.20;;;16.73;44.95;100103.97;10416539;27;96698;-82
2023/05/10 17:51:14;;;;;;;3.03;1.63;;;18.00;62.10;;;16.66;45.13;100113.00;10447195;27;96498;-82
2023/05/10 17:56:17;;;;;;;3.53;1.80;;;17.90;62.20;;;16.56;45.03;100118.81;10415440;27;96424;-82
2023/05/10 18:01:20;;;;;;;2.72;1.70;;;17.90;62.30;;;16.45;45.12;100122.13;10418289;27;96520;-82
2023/05/10 18:06:24;;;;;;;2.60;1.40;;;17.80;62.30;;;16.35;45.04;100119.03;10466472;27;96476;-82
2023/05/10 18:11:27;;;;;;;2.20;1.45;;;17.70;62.40;;;16.26;45.22;100115.75;10486150;27;96458;-82
2023/05/10 18:16:31;;;;;;;3.65;1.35;;;17.60;62.50;;;16.16;45.54;100134.91;10389220;27;96722;-82
2023/05/10 18:21:34;;;;;;;3.13;1.50;;;17.50;62.50;;;16.10;45.72;100135.75;10425050;27;96666;-82
2023/05/10 18:26:37;;;;;;;2.42;1.30;;;17.40;62.70;;;16.02;46.44;100135.97;10402869;28;96594;-82
2023/05/10 18:31:40;;;;;;;2.47;1.30;;;17.30;63.00;;;15.89;46.94;100142.09;10385025;27;96594;-82
2023/05/10 18:36:43;;;;;;;2.63;1.48;;;17.20;63.40;;;15.75;47.29;100149.28;10445776;27;96412;-83
2023/05/10 18:41:47;;;;;;;2.50;1.50;;;17.10;63.90;;;15.63;47.89;100153.59;10450831;27;96390;-82
2023/05/10 18:46:52;;;;;;;2.00;1.45;;;17.00;64.40;;;15.50;48.34;100158.88;10405553;27;97338;-82
2023/05/10 18:51:55;;;;;;;3.33;1.90;;;16.80;64.80;;;15.33;48.92;100160.25;10442337;27;96422;-83
2023/05/10 18:56:58;;;;;;;3.08;1.35;;;16.60;65.20;;;15.17;49.88;100172.09;10413778;27;98815;-84
2023/05/10 19:02:02;;;;;;;5.35;2.28;;;16.50;66.00;;;15.01;50.68;100173.28;10430541;27;96610;-84
2023/05/10 19:07:05;;;;;;;4.15;2.17;;;16.30;66.70;;;14.82;51.74;100176.66;10431394;27;96533;-84
2023/05/10 19:12:08;;;;;;;4.05;1.88;;;16.10;67.50;;;14.67;52.22;100180.25;10412622;27;97400;-83
2023/05/10 19:17:10;;;;;;;3.15;2.05;;;16.00;68.10;;;14.53;53.12;100183.88;10416710;27;96705;-83
2023/05/10 19:22:15;;;;;;;4.65;2.40;;;15.80;68.70;;;14.46;53.18;100190.97;10435711;27;97037;-83
2023/05/10 19:27:21;;;;;;;3.47;2.05;;;15.70;69.10;;;14.38;53.70;100181.22;10427457;27;96637;-83
2023/05/10 19:32:24;;;;;;;2.40;1.50;;;15.60;69.50;;;14.31;54.35;100182.19;10407059;27;98541;-83
2023/05/10 19:37:27;;;;;;;4.05;2.45;;;15.50;70.00;;;14.20;54.81;100188.88;10421664;27;97014;-83
2023/05/10 19:42:30;;;;;;;7.30;4.03;;;15.40;70.40;;;14.11;55.23;100188.19;10378546;27;97008;-83
2023/05/10 19:47:34;;;;;;;10.57;4.70;;;15.40;70.80;;;14.03;55.65;100188.31;10428655;27;97777;-83
2023/05/10 19:52:38;;;;;;;15.17;4.90;;;15.30;71.40;;;13.91;56.22;100187.16;10417879;27;98594;-83
2023/05/10 19:57:41;;;;;;;14.80;5.45;;;15.20;71.80;;;13.76;56.85;100181.88;10459632;27;96666;-83
2023/05/10 20:02:44;;;;;;;9.48;3.65;;;15.10;72.40;;;13.65;56.96;100183.19;10413437;27;97160;-83
2023/05/10 20:07:47;;;;;;;9.90;4.60;;;14.90;72.70;;;13.56;57.54;100181.66;10403115;27;96592;-83
2023/05/10 20:12:51;;;;;;;7.83;3.83;;;14.80;73.20;;;13.49;58.09;100180.72;10433397;27;96701;-83
2023/05/10 20:17:55;;;;;;;9.63;3.90;;;14.80;73.50;;;13.41;58.27;100186.19;10412995;27;96609;-83
2023/05/10 20:22:58;;;;;;;7.13;3.50;;;14.70;74.00;;;13.41;58.61;100191.53;10407280;27;97447;-83
2023/05/10 20:28:01;;;;;;;4.40;2.97;;;14.70;74.20;;;13.36;58.91;100188.56;10427281;27;96716;-83
2023/05/10 20:33:04;;;;;;;4.07;2.50;;;14.60;74.60;;;13.31;58.96;100188.31;10409172;27;97128;-83
2023/05/10 20:38:07;;;;;;;6.23;2.63;;;14.60;74.90;;;13.25;59.24;100187.19;10433151;27;98966;-83
2023/05/10 20:43:10;;;;;;;4.00;2.40;;;14.50;75.10;;;13.19;59.25;100187.09;10434282;27;96751;-83
2023/05/10 20:48:13;;;;;;;4.20;2.60;;;14.50;75.20;;;13.20;59.21;100194.09;10420681;27;97265;-83
2023/05/10 20:53:17;;;;;;;4.53;1.90;;;14.50;75.30;;;13.17;58.93;100189.13;10404644;27;96572;-83
2023/05/10 20:58:20;;;;;;;3.90;2.00;;;14.50;75.60;;;13.22;58.96;100192.94;10378839;28;97523;-83